Time;durP1;ratioP1;P1;durP2;ratioP2;P2;SDS_P1;SDS_P2;PMS_P1;PMS_P2;Temp;Humidity;BMP_temperature;BMP_pressure;BME280_temperature;BME280_humidity;BME280_pressure;Samples;Min_cycle;Max_cycle;Signal;HPM_P1;HPM_P2
2023/09/27 00:02:22;;;;;;;1999.90;999.90;;;15.90;99.90;;;;;;5011961;28;20169;-69
2023/09/27 00:04:48;;;;;;;1999.90;999.90;;;15.90;99.90;;;;;;5002679;28;20925;-67
2023/09/27 00:07:13;;;;;;;1999.90;999.90;;;16.00;99.90;;;;;;5011316;28;20710;-68
2023/09/27 00:09:39;;;;;;;1999.90;999.90;;;16.00;99.90;;;;;;5012774;28;20182;-67
2023/09/27 00:12:05;;;;;;;1999.90;999.90;;;16.10;99.90;;;;;;5012643;28;20185;-68
2023/09/27 00:14:32;;;;;;;1999.90;999.90;;;16.10;99.90;;;;;;5012570;28;20185;-68
2023/09/27 00:16:58;;;;;;;1999.90;999.90;;;16.10;99.90;;;;;;5012392;28;20429;-68
2023/09/27 00:19:24;;;;;;;1999.90;999.90;;;15.90;99.90;;;;;;5012498;28;20414;-68
2023/09/27 00:21:50;;;;;;;1999.90;999.90;;;15.90;99.90;;;;;;5012500;28;20481;-68
2023/09/27 00:24:15;;;;;;;1999.90;999.90;;;15.90;99.90;;;;;;5012453;28;20410;-68
2023/09/27 00:26:41;;;;;;;1999.90;999.90;;;15.80;99.90;;;;;;5012278;28;20199;-68
2023/09/27 00:29:07;;;;;;;1999.90;999.90;;;15.80;99.90;;;;;;5012387;28;20424;-68
2023/09/27 00:31:32;;;;;;;1999.90;999.90;;;15.80;99.90;;;;;;5011189;28;20183;-67
2023/09/27 00:33:58;;;;;;;1999.90;999.90;;;15.70;99.90;;;;;;5012186;28;20189;-67
2023/09/27 00:36:24;;;;;;;1999.90;999.90;;;15.80;99.90;;;;;;5010913;28;20269;-68
2023/09/27 00:38:49;;;;;;;1999.90;999.90;;;15.60;99.90;;;;;;5012307;28;20517;-68
2023/09/27 00:41:15;;;;;;;1999.90;999.90;;;15.50;99.90;;;;;;5012306;28;20185;-69
2023/09/27 00:43:41;;;;;;;1999.90;999.90;;;15.50;99.90;;;;;;5012214;28;20176;-68
2023/09/27 00:46:07;;;;;;;1999.90;999.90;;;15.70;99.90;;;;;;5013464;28;20250;-70
2023/09/27 00:48:36;;;;;;;1999.90;999.90;;;15.40;99.90;;;;;;5012219;28;20397;-68
2023/09/27 00:51:03;;;;;;;1999.90;999.90;;;15.40;99.90;;;;;;5013157;28;20417;-70
2023/09/27 00:53:32;;;;;;;1999.90;999.90;;;15.40;99.90;;;;;;5012920;28;20831;-68
2023/09/27 00:55:58;;;;;;;1999.90;999.90;;;15.80;99.90;;;;;;5011729;28;20841;-69
2023/09/27 00:58:25;;;;;;;1999.90;999.90;;;15.40;99.90;;;;;;5012130;28;20406;-68
2023/09/27 01:00:52;;;;;;;1999.90;999.90;;;15.40;99.90;;;;;;5012188;28;20553;-68
2023/09/27 01:03:18;;;;;;;1999.90;999.90;;;15.40;99.90;;;;;;5012008;28;20904;-69
2023/09/27 01:05:45;;;;;;;1999.90;999.90;;;15.40;99.90;;;;;;5013555;28;20884;-70
2023/09/27 01:08:11;;;;;;;1999.90;999.90;;;15.30;99.90;;;;;;5010942;28;20440;-69
2023/09/27 01:10:37;;;;;;;1999.90;999.90;;;15.30;99.90;;;;;;5010692;28;20422;-68
2023/09/27 01:13:03;;;;;;;1999.90;999.90;;;15.30;99.90;;;;;;5011952;28;20494;-68
2023/09/27 01:15:30;;;;;;;1999.90;999.90;;;15.20;99.90;;;;;;5011628;28;20448;-68
2023/09/27 01:17:57;;;;;;;1999.90;999.90;;;15.10;99.90;;;;;;5011842;28;20810;-69
2023/09/27 01:20:24;;;;;;;1999.90;999.90;;;15.00;99.90;;;;;;5012052;28;20404;-67
2023/09/27 01:23:01;;;;;;;1999.90;999.90;;;14.90;99.90;;;;;;5011892;28;20441;-68
2023/09/27 01:25:31;;;;;;;1999.90;999.90;;;14.90;99.90;;;;;;5010442;28;20433;-68
2023/09/27 01:28:07;;;;;;;1999.90;999.90;;;14.80;99.90;;;;;;5010470;28;20820;-69
2023/09/27 01:30:34;;;;;;;1999.90;999.90;;;14.80;99.90;;;;;;5012680;28;20494;-70
2023/09/27 01:33:10;;;;;;;1999.90;999.90;;;14.80;99.90;;;;;;5011990;28;20408;-68
2023/09/27 01:35:37;;;;;;;1999.90;999.90;;;14.90;99.90;;;;;;5012950;28;20458;-69
2023/09/27 01:38:04;;;;;;;1999.90;999.90;;;14.80;99.90;;;;;;5011847;28;20514;-69
2023/09/27 01:40:30;;;;;;;1999.90;999.90;;;14.70;99.90;;;;;;5012402;28;20853;-68
2023/09/27 01:43:00;;;;;;;1999.90;999.90;;;14.60;99.90;;;;;;5015400;28;20417;-68
2023/09/27 01:45:27;;;;;;;1999.90;999.90;;;14.50;99.90;;;;;;5015482;28;20417;-69
2023/09/27 01:47:53;;;;;;;1999.90;999.90;;;14.50;99.90;;;;;;5015421;28;20458;-70
2023/09/27 01:50:19;;;;;;;1999.90;999.90;;;14.40;99.90;;;;;;5015738;28;20843;-70
2023/09/27 01:52:46;;;;;;;1999.90;999.90;;;14.50;99.90;;;;;;5018824;28;20414;-69
2023/09/27 01:55:12;;;;;;;1999.90;999.90;;;14.50;99.90;;;;;;5015216;28;20853;-70
2023/09/27 01:57:37;;;;;;;1999.90;999.90;;;14.50;99.90;;;;;;5015123;28;20432;-67
2023/09/27 02:00:11;;;;;;;1999.90;999.90;;;14.50;99.90;;;;;;5015138;28;20181;-67
2023/09/27 02:02:53;;;;;;;1999.90;999.90;;;14.40;99.90;;;;;;5013798;28;20175;-69
2023/09/27 02:05:19;;;;;;;1999.90;999.90;;;14.40;99.90;;;;;;5014777;28;20787;-67
2023/09/27 02:07:44;;;;;;;1999.90;999.90;;;14.40;99.90;;;;;;5014944;28;20435;-68
2023/09/27 02:10:11;;;;;;;1999.90;999.90;;;14.30;99.90;;;;;;5012907;28;20621;-70
2023/09/27 02:12:37;;;;;;;1999.90;999.90;;;14.30;99.90;;;;;;5003332;28;20183;-68
2023/09/27 02:15:08;;;;;;;1999.90;999.90;;;14.40;99.90;;;;;;5005806;28;20455;-68
2023/09/27 02:17:35;;;;;;;1999.90;999.90;;;14.30;99.90;;;;;;5006398;28;20428;-67
2023/09/27 02:20:05;;;;;;;1999.90;999.90;;;14.30;99.90;;;;;;5006584;28;20415;-70
2023/09/27 02:22:30;;;;;;;1999.90;999.90;;;14.30;99.90;;;;;;5014781;28;20414;-68
2023/09/27 02:24:57;;;;;;;1999.90;999.90;;;14.30;99.90;;;;;;5005040;28;21091;-67
2023/09/27 02:27:23;;;;;;;1999.90;999.90;;;14.30;99.90;;;;;;5001752;28;20210;-69
2023/09/27 02:29:49;;;;;;;1999.90;999.90;;;14.40;99.90;;;;;;5006383;28;20950;-69
2023/09/27 02:32:15;;;;;;;1999.90;999.90;;;14.40;99.90;;;;;;5007220;28;20423;-70
2023/09/27 02:34:42;;;;;;;1999.90;999.90;;;14.40;99.90;;;;;;5010538;28;20459;-68
2023/09/27 02:37:07;;;;;;;1999.90;999.90;;;14.30;99.90;;;;;;5014217;28;20190;-68
2023/09/27 02:39:33;;;;;;;1999.90;999.90;;;14.30;99.90;;;;;;5008587;28;20419;-69
2023/09/27 02:42:00;;;;;;;1999.90;999.90;;;14.30;99.90;;;;;;5006162;28;20537;-68
2023/09/27 02:44:26;;;;;;;1999.90;999.90;;;14.30;99.90;;;;;;5014471;28;20412;-68
2023/09/27 02:46:52;;;;;;;1999.90;999.90;;;14.30;99.90;;;;;;5013844;28;20212;-68
2023/09/27 02:49:19;;;;;;;1999.90;999.90;;;14.30;99.90;;;;;;5014222;28;20418;-68
2023/09/27 02:51:47;;;;;;;1999.90;999.90;;;14.30;99.90;;;;;;5013105;28;20507;-68
2023/09/27 02:54:14;;;;;;;1999.90;999.90;;;14.20;99.90;;;;;;5009348;28;20466;-67
2023/09/27 02:56:45;;;;;;;1999.90;999.90;;;14.10;99.90;;;;;;5005668;28;20852;-69
2023/09/27 02:59:14;;;;;;;1999.90;999.90;;;14.00;99.90;;;;;;5014046;28;20419;-68
2023/09/27 03:01:41;;;;;;;1999.90;999.90;;;14.00;99.90;;;;;;5013936;28;20461;-68
2023/09/27 03:04:15;;;;;;;1999.90;999.90;;;14.10;99.90;;;;;;5013851;28;20419;-67
2023/09/27 03:06:41;;;;;;;1999.90;999.90;;;14.00;99.90;;;;;;5013711;28;20433;-68
2023/09/27 03:09:11;;;;;;;1999.90;999.90;;;14.00;99.90;;;;;;5013926;28;20478;-68
2023/09/27 03:11:39;;;;;;;1999.90;999.90;;;14.00;99.90;;;;;;5013786;28;20415;-68
2023/09/27 03:14:04;;;;;;;1999.90;999.90;;;14.00;99.90;;;;;;5013669;28;20824;-68
2023/09/27 03:16:30;;;;;;;1999.90;999.90;;;14.00;99.90;;;;;;5013364;28;20433;-68
2023/09/27 03:19:00;;;;;;;1999.90;999.90;;;14.00;99.90;;;;;;5013695;28;20535;-68
2023/09/27 03:21:29;;;;;;;1999.90;999.90;;;14.00;99.90;;;;;;5013565;28;20446;-70
2023/09/27 03:23:55;;;;;;;1999.90;999.90;;;13.90;99.90;;;;;;5010264;28;20499;-67
2023/09/27 03:26:22;;;;;;;1999.90;999.90;;;13.90;99.90;;;;;;5005042;28;20435;-68
2023/09/27 03:28:50;;;;;;;1999.90;999.90;;;14.00;99.90;;;;;;5013522;28;20891;-68
2023/09/27 03:31:15;;;;;;;1999.90;999.90;;;13.90;99.90;;;;;;5013493;28;20934;-67
2023/09/27 03:33:41;;;;;;;1999.90;999.90;;;13.80;99.90;;;;;;5013365;28;20473;-68
2023/09/27 03:36:07;;;;;;;1999.90;999.90;;;13.80;99.90;;;;;;5013076;28;20207;-67
2023/09/27 03:38:33;;;;;;;1999.90;999.90;;;13.80;99.90;;;;;;5013302;28;20248;-68
2023/09/27 03:40:59;;;;;;;1999.90;999.90;;;13.70;99.90;;;;;;5013309;28;20407;-68
2023/09/27 03:43:24;;;;;;;1999.90;999.90;;;13.70;99.90;;;;;;5013266;28;20172;-67
2023/09/27 03:45:51;;;;;;;1999.90;999.90;;;13.70;99.90;;;;;;5012917;28;20258;-69
2023/09/27 03:48:19;;;;;;;1999.90;999.90;;;13.70;99.90;;;;;;5011839;28;20212;-67
2023/09/27 03:50:45;;;;;;;1999.90;999.90;;;13.60;99.90;;;;;;5013147;28;20421;-67
2023/09/27 03:53:10;;;;;;;1999.90;999.90;;;13.60;99.90;;;;;;5013044;28;20409;-69
2023/09/27 03:55:36;;;;;;;1999.90;999.90;;;13.60;99.90;;;;;;5012625;28;20204;-67
2023/09/27 03:58:02;;;;;;;1999.90;999.90;;;13.60;99.90;;;;;;5013121;28;20765;-68
2023/09/27 04:00:28;;;;;;;1999.90;999.90;;;13.60;99.90;;;;;;5012919;28;20563;-68
2023/09/27 04:02:54;;;;;;;1999.90;999.90;;;13.50;99.90;;;;;;5012532;28;20417;-68
2023/09/27 04:05:23;;;;;;;1999.90;999.90;;;13.50;99.90;;;;;;5012652;28;20172;-68
2023/09/27 04:07:49;;;;;;;1999.90;999.90;;;13.50;99.90;;;;;;5012764;28;20212;-69
2023/09/27 04:10:17;;;;;;;1999.90;999.90;;;13.50;99.90;;;;;;5005893;28;20879;-70
2023/09/27 04:12:43;;;;;;;1999.90;999.90;;;13.50;99.90;;;;;;5004593;28;20251;-69
2023/09/27 04:15:09;;;;;;;1999.90;999.90;;;13.50;99.90;;;;;;5012372;28;20551;-68
2023/09/27 04:17:35;;;;;;;1999.90;999.90;;;13.50;99.90;;;;;;5012537;28;20192;-69
2023/09/27 04:20:14;;;;;;;1999.90;999.90;;;13.50;99.90;;;;;;5012587;28;20542;-68
2023/09/27 04:22:42;;;;;;;1999.90;999.90;;;13.50;99.90;;;;;;5012502;28;20491;-68
2023/09/27 04:25:08;;;;;;;1999.90;999.90;;;13.50;99.90;;;;;;5011111;28;20423;-67
2023/09/27 04:27:33;;;;;;;1999.90;999.90;;;13.50;99.90;;;;;;5012445;28;20930;-67
2023/09/27 04:29:59;;;;;;;1999.90;999.90;;;13.50;99.90;;;;;;5011129;28;20422;-68
2023/09/27 04:32:25;;;;;;;1999.90;999.90;;;13.50;99.90;;;;;;5012406;28;20554;-67
2023/09/27 04:34:51;;;;;;;1999.90;999.90;;;13.50;99.90;;;;;;5011021;28;20196;-68
2023/09/27 04:37:17;;;;;;;1999.90;999.90;;;13.40;99.90;;;;;;5012040;28;20443;-68
2023/09/27 04:39:42;;;;;;;1999.90;999.90;;;13.50;99.90;;;;;;5012318;28;20759;-68
2023/09/27 04:42:08;;;;;;;1999.90;999.90;;;13.50;99.90;;;;;;5012316;28;20170;-67
2023/09/27 04:44:34;;;;;;;1999.90;999.90;;;13.50;99.90;;;;;;5012151;28;20183;-69
2023/09/27 04:46:59;;;;;;;1999.90;999.90;;;13.40;99.90;;;;;;5011805;28;20211;-70
2023/09/27 04:49:25;;;;;;;1999.90;999.90;;;13.30;99.90;;;;;;5012197;28;20230;-68
2023/09/27 04:51:50;;;;;;;1999.90;999.90;;;13.30;99.90;;;;;;5012128;28;20175;-67
2023/09/27 04:54:17;;;;;;;1999.90;999.90;;;13.30;99.90;;;;;;5012011;28;20672;-68
2023/09/27 04:56:42;;;;;;;1999.90;999.90;;;13.20;99.90;;;;;;5011818;28;20192;-67
2023/09/27 04:59:08;;;;;;;1999.90;999.90;;;13.30;99.90;;;;;;5010870;28;20774;-68
2023/09/27 05:01:33;;;;;;;1999.90;999.90;;;13.30;99.90;;;;;;5012090;28;20181;-69
2023/09/27 05:03:59;;;;;;;1999.90;999.90;;;13.30;99.90;;;;;;5012009;28;20181;-69
2023/09/27 05:06:25;;;;;;;1999.90;999.90;;;13.20;99.90;;;;;;5011740;28;20192;-68
2023/09/27 05:08:51;;;;;;;1999.90;999.90;;;13.30;99.90;;;;;;5012025;28;20183;-68
2023/09/27 05:11:20;;;;;;;1999.90;999.90;;;13.20;99.90;;;;;;5012048;28;20407;-68
2023/09/27 05:13:48;;;;;;;1999.90;999.90;;;13.20;99.90;;;;;;5011979;28;20175;-68
2023/09/27 05:16:14;;;;;;;1999.90;999.90;;;13.10;99.90;;;;;;5012665;28;20840;-68
2023/09/27 05:18:41;;;;;;;1999.90;999.90;;;13.10;99.90;;;;;;5015912;28;20449;-68
2023/09/27 05:21:07;;;;;;;1999.90;999.90;;;13.20;99.90;;;;;;5015911;28;20176;-68
2023/09/27 05:23:33;;;;;;;1999.90;999.90;;;13.20;99.90;;;;;;5015896;28;20776;-69
2023/09/27 05:25:58;;;;;;;1999.90;999.90;;;13.40;99.90;;;;;;5015448;28;20167;-68
2023/09/27 05:28:24;;;;;;;1999.90;999.90;;;13.20;99.90;;;;;;5015709;28;20410;-68
2023/09/27 05:30:51;;;;;;;1999.90;999.90;;;13.20;99.90;;;;;;5015750;28;20638;-68
2023/09/27 05:33:18;;;;;;;1999.90;999.90;;;13.20;99.90;;;;;;5015760;28;20337;-70
2023/09/27 05:35:43;;;;;;;1999.90;999.90;;;13.20;99.90;;;;;;5015269;28;20450;-68
2023/09/27 05:38:09;;;;;;;1999.90;999.90;;;13.30;99.90;;;;;;5015504;28;20436;-69
2023/09/27 05:40:35;;;;;;;1999.90;999.90;;;13.30;99.90;;;;;;5015700;28;20724;-69
2023/09/27 05:43:02;;;;;;;1999.90;999.90;;;13.40;99.90;;;;;;5002824;28;20174;-68
2023/09/27 05:45:27;;;;;;;1999.90;999.90;;;13.50;99.90;;;;;;4995498;28;20176;-69
2023/09/27 05:47:53;;;;;;;1999.90;999.90;;;13.50;99.90;;;;;;4996450;28;20452;-69
2023/09/27 05:50:19;;;;;;;1999.90;999.90;;;13.60;99.90;;;;;;4996060;28;20181;-69
2023/09/27 05:52:46;;;;;;;1999.90;999.90;;;13.70;99.90;;;;;;4997139;28;20199;-69
2023/09/27 05:55:12;;;;;;;1999.90;999.90;;;13.70;99.90;;;;;;4997319;28;20196;-69
2023/09/27 05:57:38;;;;;;;1999.90;999.90;;;13.80;99.90;;;;;;4997587;28;20956;-69
2023/09/27 06:00:14;;;;;;;1999.90;999.90;;;13.70;99.90;;;;;;4997514;28;20408;-70
2023/09/27 06:02:40;;;;;;;1999.90;999.90;;;13.80;99.90;;;;;;4996059;28;20411;-70
2023/09/27 06:05:06;;;;;;;1999.90;999.90;;;13.90;99.90;;;;;;4997416;28;20472;-70
2023/09/27 06:07:33;;;;;;;1999.90;999.90;;;14.00;99.90;;;;;;4997563;28;20634;-70
2023/09/27 06:09:59;;;;;;;1999.90;999.90;;;13.60;99.90;;;;;;4997738;28;20418;-70
2023/09/27 06:12:25;;;;;;;1999.90;999.90;;;14.10;99.90;;;;;;4997011;28;20416;-68
2023/09/27 06:14:51;;;;;;;1999.90;999.90;;;14.10;99.90;;;;;;4997226;28;20476;-70
2023/09/27 06:17:17;;;;;;;1999.90;999.90;;;14.10;99.90;;;;;;4997213;28;20193;-69
2023/09/27 06:19:43;;;;;;;1999.90;999.90;;;14.10;99.90;;;;;;4996968;28;20166;-69
2023/09/27 06:22:09;;;;;;;1999.90;999.90;;;14.20;99.90;;;;;;4996855;28;20749;-69
2023/09/27 06:24:35;;;;;;;1999.90;999.90;;;14.30;99.90;;;;;;4997085;28;20452;-70
2023/09/27 06:27:00;;;;;;;1999.90;999.90;;;14.30;99.90;;;;;;4996401;28;20193;-70
2023/09/27 06:29:26;;;;;;;1999.90;999.90;;;14.30;99.90;;;;;;4996118;28;20251;-70
2023/09/27 06:31:52;;;;;;;1999.90;999.90;;;14.40;99.90;;;;;;4996452;28;20206;-70
2023/09/27 06:34:18;;;;;;;1999.90;999.90;;;14.40;99.90;;;;;;4996148;28;20191;-70
2023/09/27 06:36:48;;;;;;;1999.90;999.90;;;14.50;99.90;;;;;;4996450;28;20393;-69
2023/09/27 06:39:19;;;;;;;1999.90;999.90;;;14.40;99.90;;;;;;4996199;28;20414;-70
2023/09/27 06:41:45;;;;;;;1999.90;999.90;;;14.40;99.90;;;;;;4995803;28;20895;-70
2023/09/27 06:44:14;;;;;;;1999.90;999.90;;;14.40;99.90;;;;;;4994107;28;20417;-70
2023/09/27 06:46:40;;;;;;;1999.90;999.90;;;14.40;99.90;;;;;;4995375;28;21080;-69
2023/09/27 06:49:05;;;;;;;1999.90;999.90;;;14.30;99.90;;;;;;4995665;28;20422;-69
2023/09/27 06:51:31;;;;;;;1999.90;999.90;;;14.40;99.90;;;;;;4994118;28;20752;-69
2023/09/27 06:53:57;;;;;;;1999.90;999.90;;;14.50;99.90;;;;;;4995823;28;20176;-70
2023/09/27 06:56:23;;;;;;;1999.90;999.90;;;14.50;99.90;;;;;;4995740;28;20316;-69
2023/09/27 06:58:51;;;;;;;1999.90;999.90;;;14.60;99.90;;;;;;4996079;28;20420;-69
2023/09/27 07:01:16;;;;;;;1999.90;999.90;;;14.70;99.90;;;;;;4995778;28;20783;-70
2023/09/27 07:03:42;;;;;;;1999.90;999.90;;;14.80;99.90;;;;;;4993687;28;20420;-69
2023/09/27 07:06:08;;;;;;;1999.90;999.90;;;14.90;99.90;;;;;;4994935;28;20179;-69
2023/09/27 07:08:33;;;;;;;1999.90;999.90;;;15.00;99.90;;;;;;4994016;28;20653;-69
2023/09/27 07:11:06;;;;;;;1999.90;999.90;;;15.20;99.90;;;;;;4994950;28;20171;-69
2023/09/27 07:13:32;;;;;;;1999.90;999.90;;;15.30;99.90;;;;;;4994730;28;20232;-70
2023/09/27 07:15:59;;;;;;;1999.90;999.90;;;15.20;99.90;;;;;;4994179;28;20901;-67
2023/09/27 07:18:27;;;;;;;1999.90;999.90;;;15.30;99.90;;;;;;5003048;28;20414;-69
2023/09/27 07:20:54;;;;;;;1999.90;999.90;;;15.40;99.90;;;;;;5010440;28;20414;-70
2023/09/27 07:23:20;;;;;;;1999.90;999.90;;;15.40;99.90;;;;;;5014470;28;20411;-70
2023/09/27 07:25:47;;;;;;;1999.90;999.90;;;15.40;99.90;;;;;;5013847;28;20409;-69
2023/09/27 07:28:14;;;;;;;1999.90;999.90;;;15.60;99.90;;;;;;5013550;28;20849;-69
2023/09/27 07:30:39;;;;;;;1999.90;999.90;;;15.70;99.90;;;;;;5012445;28;20410;-68
2023/09/27 07:33:11;;;;;;;1999.90;999.90;;;15.80;99.90;;;;;;5011455;28;20983;-68
2023/09/27 07:35:43;;;;;;;1999.90;999.90;;;15.90;99.90;;;;;;5006002;28;20261;-69
2023/09/27 07:38:13;;;;;;;1999.90;999.90;;;16.00;99.90;;;;;;5013052;28;20514;-70
2023/09/27 07:40:39;;;;;;;1999.90;999.90;;;16.10;99.90;;;;;;5013666;28;20473;-69
2023/09/27 07:43:05;;;;;;;1999.90;999.90;;;16.10;99.90;;;;;;5013577;28;20408;-69
2023/09/27 07:45:34;;;;;;;1999.90;999.90;;;16.10;99.90;;;;;;5013709;28;20546;-70
2023/09/27 07:48:00;;;;;;;1999.90;999.90;;;16.30;99.90;;;;;;5013383;28;20686;-68
2023/09/27 07:50:27;;;;;;;1999.90;999.90;;;16.40;99.90;;;;;;5013685;28;20796;-69
2023/09/27 07:53:03;;;;;;;1999.90;999.90;;;16.40;99.90;;;;;;5013584;28;20603;-69
2023/09/27 07:55:32;;;;;;;1999.90;999.90;;;16.50;99.90;;;;;;5013355;28;20461;-69
2023/09/27 07:58:03;;;;;;;1999.90;999.90;;;16.60;99.90;;;;;;5013807;28;20423;-69
2023/09/27 08:00:29;;;;;;;1999.90;999.90;;;16.70;99.90;;;;;;5013897;28;20404;-69
2023/09/27 08:02:59;;;;;;;1999.90;999.90;;;17.00;99.90;;;;;;5013390;28;20456;-69
2023/09/27 08:05:24;;;;;;;1999.90;999.90;;;17.10;99.90;;;;;;5012749;28;20411;-69
2023/09/27 08:07:51;;;;;;;1999.90;999.90;;;17.20;99.90;;;;;;5012827;28;20432;-69
2023/09/27 08:10:17;;;;;;;1999.90;999.90;;;17.30;99.90;;;;;;5012828;28;20166;-68
2023/09/27 08:12:43;;;;;;;1999.90;999.90;;;17.30;99.90;;;;;;5012964;28;20411;-68
2023/09/27 08:15:12;;;;;;;1999.90;999.90;;;17.40;99.90;;;;;;5007960;28;20959;-66
2023/09/27 08:17:38;;;;;;;1999.90;999.90;;;19.20;99.90;;;;;;4988691;28;20471;-67
2023/09/27 08:20:09;;;;;;;1999.90;999.90;;;17.50;99.90;;;;;;4987008;28;20444;-68
2023/09/27 08:22:36;;;;;;;1999.90;999.90;;;17.50;99.90;;;;;;4987570;28;20421;-66
2023/09/27 08:25:04;;;;;;;1999.90;999.90;;;17.60;99.90;;;;;;4987840;28;21081;-67
2023/09/27 08:27:30;;;;;;;1999.90;999.90;;;17.70;99.90;;;;;;4994377;28;20452;-68
2023/09/27 08:29:55;;;;;;;1999.90;999.90;;;17.80;99.90;;;;;;5000389;28;20425;-67
2023/09/27 08:32:21;;;;;;;1999.90;999.90;;;18.00;99.90;;;;;;5005071;28;20251;-69
2023/09/27 08:34:48;;;;;;;1999.90;999.90;;;18.20;99.90;;;;;;5002633;28;20261;-66
2023/09/27 08:37:14;;;;;;;1999.90;999.90;;;18.30;99.90;;;;;;5008117;28;20198;-67
2023/09/27 08:39:39;;;;;;;1999.90;999.90;;;18.40;99.90;;;;;;4997094;28;20417;-66
2023/09/27 08:42:05;;;;;;;1999.90;999.90;;;18.50;99.90;;;;;;5005002;28;20550;-67
2023/09/27 08:44:31;;;;;;;1999.90;999.90;;;18.60;99.90;;;;;;5008683;28;20183;-68
2023/09/27 08:46:57;;;;;;;1999.90;999.90;;;18.80;99.90;;;;;;5006195;28;20261;-67
2023/09/27 08:49:24;;;;;;;1999.90;999.90;;;18.90;99.90;;;;;;5004900;28;20432;-68
2023/09/27 08:51:51;;;;;;;1999.90;999.90;;;19.10;99.90;;;;;;4991599;28;20431;-67
2023/09/27 08:54:19;;;;;;;1999.90;999.90;;;19.30;99.90;;;;;;4999109;28;20426;-68
2023/09/27 08:56:48;;;;;;;1999.90;999.90;;;19.50;99.90;;;;;;5007233;28;20442;-68
2023/09/27 08:59:18;;;;;;;1999.90;999.90;;;19.60;99.90;;;;;;5007492;28;20416;-66
2023/09/27 09:01:45;;;;;;;1999.90;999.90;;;19.70;99.90;;;;;;5001068;28;20432;-69
2023/09/27 09:04:11;;;;;;;1999.90;999.90;;;19.80;99.90;;;;;;4997269;28;20418;-67
2023/09/27 09:06:38;;;;;;;1999.90;999.90;;;19.90;99.90;;;;;;5007073;28;20953;-67
2023/09/27 09:09:11;;;;;;;1999.90;999.90;;;19.90;99.90;;;;;;5004381;28;20458;-71
2023/09/27 09:11:47;;;;;;;1999.90;999.90;;;20.00;99.90;;;;;;5000170;28;20437;-68
2023/09/27 09:14:18;;;;;;;1999.90;999.90;;;20.10;99.90;;;;;;5008029;28;20411;-68
2023/09/27 09:16:52;;;;;;;1999.90;999.90;;;20.20;99.90;;;;;;5007379;28;20433;-68
2023/09/27 09:19:26;;;;;;;1999.90;999.90;;;20.30;99.90;;;;;;5007245;28;20413;-68
2023/09/27 09:22:04;;;;;;;1999.90;999.90;;;20.30;99.90;;;;;;5007366;28;20503;-68
2023/09/27 09:24:32;;;;;;;1999.90;999.90;;;20.40;99.90;;;;;;5006982;28;20996;-67
2023/09/27 09:27:14;;;;;;;1999.90;999.90;;;20.50;99.90;;;;;;5006873;28;20808;-67
2023/09/27 09:29:46;;;;;;;1999.90;999.90;;;20.60;99.90;;;;;;5007073;28;20420;-66
2023/09/27 09:32:13;;;;;;;1999.90;999.90;;;20.60;99.90;;;;;;5006967;28;20427;-67
2023/09/27 09:34:49;;;;;;;1999.90;999.90;;;20.60;99.90;;;;;;5006161;28;20466;-71
2023/09/27 09:37:20;;;;;;;1999.90;999.90;;;20.70;99.90;;;;;;5007084;28;20808;-69
2023/09/27 09:39:48;;;;;;;1999.90;999.90;;;20.80;99.90;;;;;;4993636;28;20431;-69
2023/09/27 09:42:28;;;;;;;1999.90;999.90;;;21.00;99.90;;;;;;4994390;28;20486;-68
2023/09/27 09:45:20;;;;;;;1999.90;999.90;;;21.10;99.90;;;;;;4999536;28;20422;-69
2023/09/27 09:47:46;;;;;;;1999.90;999.90;;;21.10;99.90;;;;;;4994917;28;20549;-68
2023/09/27 09:50:19;;;;;;;1999.90;999.90;;;21.10;99.90;;;;;;5007565;28;20430;-68
2023/09/27 09:52:53;;;;;;;1999.90;999.90;;;21.10;99.90;;;;;;5006234;28;20428;-67
2023/09/27 09:55:34;;;;;;;1999.90;999.90;;;21.20;99.90;;;;;;4998992;28;20526;-67
2023/09/27 09:58:10;;;;;;;1999.90;999.90;;;21.30;99.90;;;;;;5007757;28;20409;-67
2023/09/27 10:00:38;;;;;;;1999.90;999.90;;;21.50;99.90;;;;;;5007682;28;20415;-67
2023/09/27 10:03:07;;;;;;;1999.90;999.90;;;21.70;99.90;;;;;;5010377;28;20548;-67
2023/09/27 10:05:38;;;;;;;1999.90;999.90;;;21.80;99.90;;;;;;5010153;28;20834;-67
2023/09/27 10:08:05;;;;;;;1999.90;999.90;;;22.00;99.90;;;;;;4998637;28;20430;-67
2023/09/27 10:10:31;;;;;;;1999.90;999.90;;;22.20;99.90;;;;;;5009835;28;20420;-69
2023/09/27 10:12:58;;;;;;;1999.90;999.90;;;22.40;99.90;;;;;;5010381;28;20423;-67
2023/09/27 10:15:24;;;;;;;1999.90;999.90;;;22.60;99.90;;;;;;5010052;28;20443;-67
2023/09/27 10:17:50;;;;;;;1999.90;999.90;;;22.70;99.90;;;;;;5012119;28;20454;-67
2023/09/27 10:20:20;;;;;;;1999.90;999.90;;;22.90;99.90;;;;;;4998324;28;20431;-69
2023/09/27 10:22:47;;;;;;;1999.90;999.90;;;23.00;99.90;;;;;;5001799;28;20402;-67
2023/09/27 10:25:27;;;;;;;1999.90;999.90;;;23.20;99.90;;;;;;5001754;28;20415;-69
2023/09/27 10:28:12;;;;;;;1999.90;999.90;;;23.50;99.90;;;;;;5006493;28;20830;-67
2023/09/27 10:30:40;;;;;;;1999.90;999.90;;;23.70;99.90;;;;;;5014100;28;20407;-69
2023/09/27 10:33:15;;;;;;;1999.90;999.90;;;24.00;99.90;;;;;;5014234;28;20419;-68
2023/09/27 10:35:46;;;;;;;1999.90;999.90;;;24.30;99.90;;;;;;5013874;28;20458;-67
2023/09/27 10:38:12;;;;;;;1999.90;999.90;;;24.50;96.40;;;;;;5013955;28;20755;-67
2023/09/27 10:40:45;;;;;;;1999.90;999.90;;;24.80;96.40;;;;;;5014055;28;20418;-67
2023/09/27 10:43:40;;;;;;;1999.90;999.90;;;24.90;93.20;;;;;;5014186;28;20407;-69
2023/09/27 10:46:07;;;;;;;1999.90;999.90;;;25.10;93.40;;;;;;5013351;28;20371;-67
2023/09/27 10:48:37;;;;;;;1999.90;999.90;;;25.20;88.00;;;;;;5014294;28;20769;-67
2023/09/27 10:51:03;;;;;;;1999.90;999.90;;;25.30;87.30;;;;;;5013905;28;20397;-68
2023/09/27 10:53:32;;;;;;;1999.90;999.90;;;25.50;86.00;;;;;;5013970;28;20382;-69
2023/09/27 10:55:58;;;;;;;1999.90;999.90;;;25.70;80.40;;;;;;5013823;28;20232;-67
2023/09/27 10:58:23;;;;;;;1999.90;999.90;;;25.90;76.60;;;;;;5014025;28;20498;-69
2023/09/27 11:00:51;;;;;;;1999.90;999.90;;;25.90;69.70;;;;;;5013836;28;20591;-69
2023/09/27 11:03:17;;;;;;;1999.90;999.90;;;25.90;72.20;;;;;;5013777;28;20252;-68
2023/09/27 11:05:43;;;;;;;1999.90;999.90;;;26.10;69.80;;;;;;5013302;28;20937;-67
2023/09/27 11:08:09;;;;;;;1999.90;999.90;;;26.30;66.30;;;;;;5013470;28;20435;-68
2023/09/27 11:10:35;;;;;;;1999.90;999.90;;;26.40;65.20;;;;;;5014074;28;20215;-67
2023/09/27 11:13:21;;;;;;;1999.90;999.90;;;26.60;61.90;;;;;;5011144;28;20874;-67
2023/09/27 11:15:46;;;;;;;1999.90;999.90;;;26.80;57.20;;;;;;5012851;28;20518;-68
2023/09/27 11:18:12;;;;;;;1999.90;999.90;;;27.00;57.00;;;;;;5013373;28;20508;-69
2023/09/27 11:20:41;;;;;;;1999.90;999.90;;;27.20;56.60;;;;;;5013333;28;20169;-66
2023/09/27 11:23:07;;;;;;;1999.90;999.90;;;27.30;54.50;;;;;;5013277;28;20172;-68
2023/09/27 11:25:35;;;;;;;1999.90;999.90;;;27.30;52.20;;;;;;5013194;28;20904;-67
2023/09/27 11:28:01;;;;;;;1999.90;999.90;;;27.30;47.30;;;;;;5013430;28;20440;-67
2023/09/27 11:30:32;;;;;;;1999.90;999.90;;;27.30;44.70;;;;;;5013017;28;20449;-67
2023/09/27 11:33:05;;;;;;;1999.90;999.90;;;27.10;41.70;;;;;;5013252;28;20499;-66
2023/09/27 11:35:31;;;;;;;1999.90;999.90;;;27.20;41.90;;;;;;5012756;28;20443;-69
2023/09/27 11:38:11;;;;;;;1999.90;999.90;;;27.30;43.50;;;;;;5012797;28;20435;-67
2023/09/27 11:40:40;;;;;;;1999.90;999.90;;;27.70;39.20;;;;;;5012949;28;20474;-67
2023/09/27 11:43:06;;;;;;;1999.90;999.90;;;28.30;40.80;;;;;;5013224;28;20431;-67
2023/09/27 11:45:45;;;;;;;1999.90;999.90;;;28.80;39.00;;;;;;5012537;28;20443;-67
2023/09/27 11:48:11;;;;;;;1999.90;999.90;;;29.30;35.60;;;;;;5011346;28;20213;-67
2023/09/27 11:50:37;;;;;;;1999.90;999.90;;;29.80;31.00;;;;;;5035271;23;20492;-68
2023/09/27 11:53:03;;;;;;;1999.90;999.90;;;30.50;26.50;;;;;;4993500;28;20459;-68
2023/09/27 11:55:29;;;;;;;1999.90;999.90;;;31.20;21.00;;;;;;4993149;28;20950;-68
2023/09/27 11:57:59;;;;;;;1999.90;999.90;;;31.70;16.80;;;;;;4993487;28;20295;-67
2023/09/27 12:00:24;;;;;;;1999.90;999.90;;;32.20;16.10;;;;;;4993346;28;20428;-68
2023/09/27 12:02:51;;;;;;;1999.90;999.90;;;32.40;11.30;;;;;;4993185;28;20486;-68